createdAt,value
2023-04-17T00:01:27.866Z,99632.20
2023-04-17T00:03:57.762Z,99633.55
2023-04-17T00:06:27.262Z,99633.58
2023-04-17T00:08:55.891Z,99633.02
2023-04-17T00:11:23.921Z,99634.58
2023-04-17T00:13:52.023Z,99633.26
2023-04-17T00:16:19.995Z,99630.52
2023-04-17T00:18:48.114Z,99626.83
2023-04-17T00:21:16.062Z,99627.38
2023-04-17T00:23:44.026Z,99628.45
2023-04-17T00:26:12.996Z,99630.86
2023-04-17T00:28:42.919Z,99633.31
2023-04-17T00:31:11.048Z,99630.19
2023-04-17T00:33:39.114Z,99632.84
2023-04-17T00:36:08.511Z,99633.91
2023-04-17T00:38:36.446Z,99630.61
2023-04-17T00:41:04.585Z,99630.17
2023-04-17T00:43:32.663Z,99632.66
2023-04-17T00:46:01.667Z,99633.56
2023-04-17T00:48:29.718Z,99635.00
2023-04-17T00:51:02.232Z,99636.73
2023-04-17T00:53:34.064Z,99641.61
2023-04-17T00:56:06.728Z,99644.38
2023-04-17T00:58:37.590Z,99644.92
2023-04-17T01:01:06.760Z,99645.98
2023-04-17T01:03:35.320Z,99648.22
2023-04-17T01:06:04.609Z,99649.23
2023-04-17T01:08:41.583Z,99652.66
2023-04-17T01:11:10.867Z,99648.83
2023-04-17T01:13:49.335Z,99651.70
2023-04-17T01:16:18.675Z,99649.26
2023-04-17T01:18:48.561Z,99649.58
2023-04-17T01:21:16.805Z,99651.41
2023-04-17T01:23:51.810Z,99653.84
2023-04-17T01:26:24.694Z,99649.74
2023-04-17T01:28:55.569Z,99651.21
2023-04-17T01:31:25.525Z,99651.10
2023-04-17T01:33:53.838Z,99648.72
2023-04-17T01:36:21.891Z,99648.93
2023-04-17T01:38:49.974Z,99648.16
2023-04-17T01:41:17.989Z,99648.27
2023-04-17T01:43:47.614Z,99648.43
2023-04-17T01:46:16.031Z,99649.09
2023-04-17T01:48:44.204Z,99648.92
2023-04-17T01:51:12.142Z,99643.86
2023-04-17T01:53:40.648Z,99644.13
2023-04-17T01:56:08.667Z,99645.95
2023-04-17T01:58:36.753Z,99650.98
2023-04-17T02:01:06.704Z,99652.59
2023-04-17T02:03:34.897Z,99651.48
2023-04-17T02:06:03.306Z,99652.66
2023-04-17T02:08:31.324Z,99653.20
2023-04-17T02:11:00.166Z,99656.45
2023-04-17T02:13:29.023Z,99656.23
2023-04-17T02:15:58.107Z,99656.23
2023-04-17T02:18:30.466Z,99654.73
2023-04-17T02:21:01.658Z,99654.18
2023-04-17T02:23:29.646Z,99656.70
2023-04-17T02:25:57.949Z,99656.59
2023-04-17T02:28:25.945Z,99657.24
2023-04-17T02:30:53.947Z,99657.30
2023-04-17T02:33:22.114Z,99656.05
2023-04-17T02:35:51.136Z,99656.96
2023-04-17T02:38:22.678Z,99651.39
2023-04-17T02:40:50.785Z,99652.66
2023-04-17T02:43:19.031Z,99653.67
2023-04-17T02:45:46.919Z,99652.44
2023-04-17T02:48:15.543Z,99652.29
2023-04-17T02:50:43.520Z,99655.93
2023-04-17T02:53:16.180Z,99654.71
2023-04-17T02:55:44.127Z,99657.00
2023-04-17T02:58:14.125Z,99657.98
2023-04-17T03:00:42.144Z,99658.24
2023-04-17T03:03:14.584Z,99654.80
2023-04-17T03:05:42.867Z,99653.44
2023-04-17T03:08:11.140Z,99652.20
2023-04-17T03:10:49.657Z,99654.77
2023-04-17T03:13:17.603Z,99654.96
2023-04-17T03:15:45.754Z,99654.68
2023-04-17T03:18:13.878Z,99656.62
2023-04-17T03:20:41.883Z,99656.73
2023-04-17T03:23:09.746Z,99659.29
2023-04-17T03:25:38.306Z,99661.98
2023-04-17T03:28:06.866Z,99667.39
2023-04-17T03:30:34.984Z,99668.35
2023-04-17T03:33:06.493Z,99667.98
2023-04-17T03:35:34.619Z,99670.27
2023-04-17T03:38:05.912Z,99670.98
2023-04-17T03:40:34.006Z,99673.88
2023-04-17T03:43:02.014Z,99674.70
2023-04-17T03:45:32.397Z,99677.12
2023-04-17T03:48:01.190Z,99679.80
2023-04-17T03:50:30.043Z,99679.13
2023-04-17T03:52:58.212Z,99682.48
2023-04-17T03:55:28.285Z,99680.75
2023-04-17T03:57:56.821Z,99680.92
2023-04-17T04:00:26.158Z,99683.63
2023-04-17T04:02:56.964Z,99684.06
2023-04-17T04:05:28.798Z,99683.98
2023-04-17T04:07:59.093Z,99685.61
2023-04-17T04:10:34.408Z,99687.66
2023-04-17T04:13:02.366Z,99690.91
2023-04-17T04:15:31.022Z,99690.25
2023-04-17T04:18:01.991Z,99689.08
2023-04-17T04:20:30.869Z,99691.70
2023-04-17T04:23:08.814Z,99693.59
2023-04-17T04:25:41.718Z,99695.92
2023-04-17T04:28:28.314Z,99701.02
2023-04-17T04:30:59.019Z,99702.61
2023-04-17T04:33:30.447Z,99703.80
2023-04-17T04:36:01.398Z,99705.05
2023-04-17T04:38:31.127Z,99708.43
2023-04-17T04:41:01.771Z,99704.76
2023-04-17T04:43:33.156Z,99704.06
2023-04-17T04:46:03.962Z,99705.84
2023-04-17T04:48:37.939Z,99711.83
2023-04-17T04:51:08.365Z,99713.96
2023-04-17T04:53:36.957Z,99717.13
2023-04-17T04:56:06.110Z,99720.02
2023-04-17T04:58:34.734Z,99722.07
2023-04-17T05:01:04.258Z,99727.06
2023-04-17T05:03:39.315Z,99725.05
2023-04-17T05:06:09.589Z,99725.98
2023-04-17T05:08:45.190Z,99724.99
2023-04-17T05:11:15.858Z,99724.04
2023-04-17T05:13:44.017Z,99722.83
2023-04-17T05:16:17.063Z,99723.39
2023-04-17T05:18:48.018Z,99723.50
2023-04-17T05:21:17.785Z,99723.70
2023-04-17T05:23:46.401Z,99723.41
2023-04-17T05:26:14.414Z,99725.05
2023-04-17T05:28:45.267Z,99724.80
2023-04-17T05:31:17.264Z,99726.98
2023-04-17T05:33:45.291Z,99726.58
2023-04-17T05:36:14.162Z,99727.89
2023-04-17T05:38:44.768Z,99731.35
2023-04-17T05:41:14.263Z,99728.01
2023-04-17T05:43:43.192Z,99727.27
2023-04-17T05:46:11.205Z,99731.58
2023-04-17T05:48:43.286Z,99736.59
2023-04-17T05:51:11.498Z,99738.17
2023-04-17T05:53:40.002Z,99739.80
2023-04-17T05:56:07.968Z,99739.20
2023-04-17T05:58:36.862Z,99738.48
2023-04-17T06:01:06.595Z,99741.14
2023-04-17T06:03:35.339Z,99742.45
2023-04-17T06:06:23.885Z,99745.11
2023-04-17T06:08:54.563Z,99740.67
2023-04-17T06:11:24.378Z,99741.57
2023-04-17T06:13:52.534Z,99741.15
2023-04-17T06:16:22.117Z,99744.75
2023-04-17T06:18:51.957Z,99743.20
2023-04-17T06:21:21.306Z,99746.21
2023-04-17T06:23:49.266Z,99743.55
2023-04-17T06:26:21.331Z,99743.42
2023-04-17T06:28:51.218Z,99743.78
2023-04-17T06:31:19.223Z,99745.86
2023-04-17T06:33:49.969Z,99745.48
2023-04-17T06:36:18.837Z,99741.02
2023-04-17T06:38:57.089Z,99742.55
2023-04-17T06:41:25.000Z,99742.65
2023-04-17T06:43:54.846Z,99743.30
2023-04-17T06:46:23.467Z,99741.30
2023-04-17T06:48:52.413Z,99740.45
2023-04-17T06:51:21.773Z,99738.58
2023-04-17T06:53:49.727Z,99736.58
2023-04-17T06:56:18.303Z,99736.98
2023-04-17T06:58:46.180Z,99735.33
2023-04-17T07:01:15.749Z,99729.47
2023-04-17T07:03:44.048Z,99727.61
2023-04-17T07:06:12.634Z,99732.42
2023-04-17T07:08:40.466Z,99737.40
2023-04-17T07:11:08.536Z,99733.77
2023-04-17T07:13:36.461Z,99729.73
2023-04-17T07:16:07.436Z,99731.33
2023-04-17T07:18:35.418Z,99731.45
2023-04-17T07:21:03.954Z,99732.98
2023-04-17T07:23:37.551Z,99731.69
2023-04-17T07:26:05.728Z,99732.66
2023-04-17T07:28:34.281Z,99732.80
2023-04-17T07:31:04.758Z,99732.44
2023-04-17T07:33:32.855Z,99733.86
2023-04-17T07:36:11.331Z,99733.85
2023-04-17T07:38:40.935Z,99735.98
2023-04-17T07:41:11.611Z,99733.92
2023-04-17T07:43:39.552Z,99731.83
2023-04-17T07:46:07.543Z,99733.17
2023-04-17T07:48:35.541Z,99732.06
2023-04-17T07:51:03.698Z,99732.34
2023-04-17T07:53:31.939Z,99736.25
2023-04-17T07:55:59.939Z,99737.33
2023-04-17T07:58:27.850Z,99736.13
2023-04-17T08:00:56.486Z,99734.41
2023-04-17T08:03:26.042Z,99739.49
2023-04-17T08:05:56.472Z,99742.70
2023-04-17T08:08:24.861Z,99745.46
2023-04-17T08:10:52.882Z,99745.77
2023-04-17T08:13:20.744Z,99747.09
2023-04-17T08:15:48.762Z,99751.38
2023-04-17T08:18:16.893Z,99751.12
2023-04-17T08:20:45.114Z,99747.45
2023-04-17T08:23:13.104Z,99744.80
2023-04-17T08:25:41.146Z,99749.70
2023-04-17T08:28:09.380Z,99747.63
2023-04-17T08:30:37.775Z,99746.11
2023-04-17T08:33:05.935Z,99746.13
2023-04-17T08:35:35.529Z,99744.46
2023-04-17T08:38:04.284Z,99747.61
2023-04-17T08:40:32.305Z,99750.55
2023-04-17T08:43:08.754Z,99750.95
2023-04-17T08:45:44.212Z,99749.44
2023-04-17T08:48:13.729Z,99749.09
2023-04-17T08:50:43.192Z,99753.44
2023-04-17T08:53:11.713Z,99748.89
2023-04-17T08:55:39.695Z,99747.60
2023-04-17T08:58:09.198Z,99746.19
2023-04-17T09:00:39.984Z,99745.84
2023-04-17T09:03:13.625Z,99744.83
2023-04-17T09:05:46.157Z,99744.27
2023-04-17T09:08:26.357Z,99742.38
2023-04-17T09:10:55.484Z,99739.80
2023-04-17T09:13:25.670Z,99742.23
2023-04-17T09:16:08.973Z,99741.27
2023-04-17T09:18:38.190Z,99739.55
2023-04-17T09:21:07.245Z,99738.79
2023-04-17T09:23:56.415Z,99740.73
2023-04-17T09:26:31.060Z,99738.97
2023-04-17T09:29:12.367Z,99735.63
2023-04-17T09:31:43.153Z,99733.28
2023-04-17T09:34:13.083Z,99731.12
2023-04-17T09:36:43.224Z,99730.06
2023-04-17T09:39:37.279Z,99729.00
2023-04-17T09:42:06.517Z,99723.48
2023-04-17T09:44:39.069Z,99721.33
2023-04-17T09:47:08.753Z,99725.25
2023-04-17T09:49:42.678Z,99727.94
2023-04-17T09:52:12.088Z,99721.70
2023-04-17T09:54:40.928Z,99719.84
2023-04-17T09:57:10.857Z,99712.95
2023-04-17T09:59:48.876Z,99708.80
2023-04-17T10:02:26.881Z,99709.61
2023-04-17T10:04:55.561Z,99710.48
2023-04-17T10:07:23.541Z,99713.05
2023-04-17T10:09:51.714Z,99710.60
2023-04-17T10:12:20.924Z,99712.21
2023-04-17T10:14:52.002Z,99707.77
2023-04-17T10:17:24.799Z,99708.38
2023-04-17T10:19:52.951Z,99712.98
2023-04-17T10:22:20.908Z,99710.06
2023-04-17T10:24:54.166Z,99705.81
2023-04-17T10:27:25.112Z,99704.42
2023-04-17T10:30:02.290Z,99701.09
2023-04-17T10:32:31.707Z,99699.77
2023-04-17T10:35:20.884Z,99703.31
2023-04-17T10:37:51.960Z,99703.62
2023-04-17T10:40:21.825Z,99695.19
2023-04-17T10:43:23.048Z,99693.81
2023-04-17T10:46:12.375Z,99692.34
2023-04-17T10:48:52.694Z,99689.31
2023-04-17T10:51:24.381Z,99685.86
2023-04-17T10:54:05.586Z,99682.46
2023-04-17T10:56:39.472Z,99677.72
2023-04-17T10:59:12.385Z,99676.39
2023-04-17T11:02:01.708Z,99675.21
2023-04-17T11:04:31.768Z,99672.30
2023-04-17T11:07:01.110Z,99673.17
2023-04-17T11:09:29.715Z,99671.54
2023-04-17T11:12:02.082Z,99674.24
2023-04-17T11:14:31.476Z,99675.48
2023-04-17T11:17:01.336Z,99673.20
2023-04-17T11:19:29.545Z,99672.35
2023-04-17T11:21:58.945Z,99666.30
2023-04-17T11:24:31.197Z,99661.25
2023-04-17T11:27:02.244Z,99657.63
2023-04-17T11:29:30.139Z,99661.84
2023-04-17T11:32:01.002Z,99656.11
2023-04-17T11:34:30.438Z,99658.05
2023-04-17T11:37:01.499Z,99654.89
2023-04-17T11:39:31.241Z,99653.95
2023-04-17T11:42:00.515Z,99652.88
2023-04-17T11:44:29.697Z,99652.27
2023-04-17T11:46:59.038Z,99655.85
2023-04-17T11:49:32.797Z,99651.41
2023-04-17T11:52:02.252Z,99649.77
2023-04-17T11:54:37.801Z,99657.01
2023-04-17T11:57:13.810Z,99651.65
2023-04-17T11:59:43.088Z,99650.89
2023-04-17T12:02:11.333Z,99655.59
2023-04-17T12:04:40.772Z,99650.52
2023-04-17T12:07:23.120Z,99647.67
2023-04-17T12:09:57.152Z,99642.20
2023-04-17T12:12:25.374Z,99641.88
2023-04-17T12:14:53.257Z,99637.05
2023-04-17T12:17:21.263Z,99637.71
2023-04-17T12:19:49.200Z,99637.55
2023-04-17T12:22:17.130Z,99636.63
2023-04-17T12:24:45.383Z,99633.73
2023-04-17T12:27:13.537Z,99634.35
2023-04-17T12:29:44.377Z,99634.73
2023-04-17T12:32:13.320Z,99628.91
2023-04-17T12:34:41.329Z,99628.77
2023-04-17T12:37:09.408Z,99632.92
2023-04-17T12:39:37.393Z,99637.89
2023-04-17T12:42:05.530Z,99638.89
2023-04-17T12:44:34.098Z,99638.74
2023-04-17T12:47:02.090Z,99653.32
2023-04-17T12:49:29.966Z,99666.99
2023-04-17T12:51:58.238Z,99666.72
2023-04-17T12:54:27.425Z,99672.38
2023-04-17T12:56:55.989Z,99677.09
2023-04-17T12:59:23.814Z,99675.80
2023-04-17T13:01:51.949Z,99678.95
2023-04-17T13:04:20.775Z,99684.30
2023-04-17T13:06:49.158Z,99685.50
2023-04-17T13:09:18.106Z,99688.86
2023-04-17T13:11:46.345Z,99685.20
2023-04-17T13:14:18.324Z,99683.80
2023-04-17T13:16:50.828Z,99684.89
2023-04-17T13:19:20.049Z,99679.45
2023-04-17T13:21:52.707Z,99681.95
2023-04-17T13:24:20.612Z,99688.85
2023-04-17T13:26:48.648Z,99685.41
2023-04-17T13:29:19.059Z,99683.94
2023-04-17T13:31:47.720Z,99687.01
2023-04-17T13:34:15.882Z,99690.21
2023-04-17T13:36:45.076Z,99691.11
2023-04-17T13:39:15.078Z,99693.44
2023-04-17T13:41:43.343Z,99693.73
2023-04-17T13:44:12.744Z,99694.81
2023-04-17T13:46:41.709Z,99696.05
2023-04-17T13:49:10.424Z,99699.89
2023-04-17T13:51:38.545Z,99700.66
2023-04-17T13:54:06.952Z,99700.37
2023-04-17T13:56:36.721Z,99705.26
2023-04-17T13:59:12.397Z,99705.13
2023-04-17T14:01:42.418Z,99704.23
2023-04-17T14:04:13.701Z,99704.55
2023-04-17T14:06:47.098Z,99703.77
2023-04-17T14:09:18.319Z,99701.55
2023-04-17T14:11:46.330Z,99703.66
2023-04-17T14:14:14.521Z,99698.14
2023-04-17T14:16:43.656Z,99696.15
2023-04-17T14:19:14.646Z,99694.20
2023-04-17T14:21:43.135Z,99688.77
2023-04-17T14:24:11.044Z,99687.22
2023-04-17T14:26:39.205Z,99682.09
2023-04-17T14:29:07.174Z,99685.23
2023-04-17T14:31:35.077Z,99683.36
2023-04-17T14:34:02.965Z,99683.59
2023-04-17T14:36:31.325Z,99679.15
2023-04-17T14:38:59.297Z,99676.58
2023-04-17T14:41:30.041Z,99673.91
2023-04-17T14:43:59.510Z,99669.73
2023-04-17T14:46:27.648Z,99664.04
2023-04-17T14:48:56.393Z,99661.34
2023-04-17T14:51:24.594Z,99665.65
2023-04-17T14:53:53.194Z,99663.90
2023-04-17T14:56:22.074Z,99661.86
2023-04-17T14:58:50.366Z,99662.45
2023-04-17T15:01:18.373Z,99659.70
2023-04-17T15:03:48.473Z,99653.38
2023-04-17T15:06:18.935Z,99651.16
2023-04-17T15:08:46.984Z,99654.41
2023-04-17T15:11:14.917Z,99649.91
2023-04-17T15:13:42.893Z,99648.59
2023-04-17T15:16:12.271Z,99644.59
2023-04-17T15:18:40.318Z,99643.17
2023-04-17T15:21:08.364Z,99645.88
2023-04-17T15:23:36.248Z,99650.98
2023-04-17T15:26:04.387Z,99652.19
2023-04-17T15:28:34.011Z,99652.69
2023-04-17T15:31:02.512Z,99659.21
2023-04-17T15:33:30.775Z,99661.48
2023-04-17T15:35:59.892Z,99663.73
2023-04-17T15:38:28.246Z,99662.56
2023-04-17T15:40:56.227Z,99662.11
2023-04-17T15:43:24.166Z,99664.61
2023-04-17T15:45:52.333Z,99664.88
2023-04-17T15:48:23.285Z,99665.06
2023-04-17T15:50:51.094Z,99663.54
2023-04-17T15:53:19.155Z,99664.79
2023-04-17T15:55:47.128Z,99662.38
2023-04-17T15:58:16.153Z,99664.96
2023-04-17T16:00:44.003Z,99663.00
2023-04-17T16:03:12.133Z,99662.95
2023-04-17T16:05:40.486Z,99662.04
2023-04-17T16:08:08.446Z,99664.05
2023-04-17T16:10:36.897Z,99667.82
2023-04-17T16:13:04.988Z,99676.42
2023-04-17T16:15:32.972Z,99687.98
2023-04-17T16:18:01.782Z,99702.55
2023-04-17T16:20:30.761Z,99706.08
2023-04-17T16:22:58.617Z,99708.21
2023-04-17T16:25:26.550Z,99709.47
2023-04-17T16:27:54.397Z,99710.30
2023-04-17T16:30:22.469Z,99705.70
2023-04-17T16:32:50.562Z,99702.54
2023-04-17T16:35:18.681Z,99711.88
2023-04-17T16:37:48.860Z,99711.67
2023-04-17T16:40:17.969Z,99713.70
2023-04-17T16:42:45.954Z,99721.65
2023-04-17T16:45:13.820Z,99725.95
2023-04-17T16:47:42.078Z,99727.67
2023-04-17T16:50:11.737Z,99727.23
2023-04-17T16:52:41.131Z,99728.34
2023-04-17T16:55:09.679Z,99737.54
2023-04-17T16:57:40.119Z,99745.23
2023-04-17T17:00:09.985Z,99743.85
2023-04-17T17:02:38.036Z,99737.48
2023-04-17T17:05:07.867Z,99741.83
2023-04-17T17:07:35.978Z,99743.89
2023-04-17T17:10:04.248Z,99742.38
2023-04-17T17:12:32.266Z,99739.20
2023-04-17T17:15:00.399Z,99737.70
2023-04-17T17:17:28.353Z,99735.80
2023-04-17T17:19:56.395Z,99738.18
2023-04-17T17:22:24.598Z,99746.85
2023-04-17T17:24:53.146Z,99757.84
2023-04-17T17:27:21.178Z,99761.79
2023-04-17T17:29:49.247Z,99769.70
2023-04-17T17:32:17.323Z,99769.56
2023-04-17T17:34:45.773Z,99765.71
2023-04-17T17:37:13.839Z,99759.14
2023-04-17T17:39:41.750Z,99766.30
2023-04-17T17:42:09.801Z,99774.39
2023-04-17T17:44:38.658Z,99774.14
2023-04-17T17:47:08.128Z,99783.70
2023-04-17T17:49:36.287Z,99786.70
2023-04-17T17:52:06.684Z,99790.58
2023-04-17T17:54:36.894Z,99790.86
2023-04-17T17:57:06.614Z,99786.21
2023-04-17T17:59:34.607Z,99786.95
2023-04-17T18:02:02.694Z,99783.90
2023-04-17T18:04:30.886Z,99780.72
2023-04-17T18:06:58.947Z,99774.80
2023-04-17T18:09:26.997Z,99773.27
2023-04-17T18:11:54.940Z,99773.24
2023-04-17T18:14:22.951Z,99772.09
2023-04-17T18:16:50.967Z,99771.91
2023-04-17T18:19:24.639Z,99782.40
2023-04-17T18:21:52.662Z,99777.27
2023-04-17T18:24:20.553Z,99778.30
2023-04-17T18:26:48.514Z,99780.50
2023-04-17T18:29:16.517Z,99780.13
2023-04-17T18:31:44.807Z,99778.30
2023-04-17T18:34:12.928Z,99782.35
2023-04-17T18:36:41.147Z,99785.49
2023-04-17T18:39:09.009Z,99787.86
2023-04-17T18:41:36.894Z,99787.86
2023-04-17T18:44:05.031Z,99790.66
2023-04-17T18:46:35.562Z,99790.51
2023-04-17T18:49:03.453Z,99791.22
2023-04-17T18:51:33.746Z,99794.75
2023-04-17T18:54:02.873Z,99793.81
2023-04-17T18:56:30.960Z,99791.92
2023-04-17T18:58:58.886Z,99789.81
2023-04-17T19:01:26.942Z,99788.97
2023-04-17T19:03:54.954Z,99790.96
2023-04-17T19:06:22.923Z,99793.07
2023-04-17T19:08:51.522Z,99796.89
2023-04-17T19:11:19.418Z,99798.61
2023-04-17T19:13:47.448Z,99797.91
2023-04-17T19:16:15.702Z,99801.35
2023-04-17T19:18:43.769Z,99802.99
2023-04-17T19:21:12.704Z,99805.84
2023-04-17T19:23:41.382Z,99806.03
2023-04-17T19:26:13.675Z,99807.32
2023-04-17T19:28:41.588Z,99809.70
2023-04-17T19:31:09.920Z,99809.44
2023-04-17T19:33:37.925Z,99812.25
2023-04-17T19:36:06.035Z,99811.33
2023-04-17T19:38:34.041Z,99811.12
2023-04-17T19:41:17.680Z,99806.91
2023-04-17T19:43:47.349Z,99803.32
2023-04-17T19:46:16.075Z,99801.36
2023-04-17T19:48:46.340Z,99805.52
2023-04-17T19:51:15.130Z,99802.16
2023-04-17T19:53:44.375Z,99800.47
2023-04-17T19:56:12.305Z,99800.27
2023-04-17T19:58:43.788Z,99799.44
2023-04-17T20:01:11.959Z,99794.83
2023-04-17T20:03:42.360Z,99790.25
2023-04-17T20:06:10.584Z,99791.61
2023-04-17T20:08:38.452Z,99788.75
2023-04-17T20:11:06.736Z,99783.80
2023-04-17T20:13:34.704Z,99780.44
2023-04-17T20:16:04.004Z,99776.02
2023-04-17T20:18:34.432Z,99776.23
2023-04-17T20:21:09.187Z,99776.64
2023-04-17T20:23:37.015Z,99775.95
2023-04-17T20:26:04.949Z,99777.75
2023-04-17T20:28:35.509Z,99779.95
2023-04-17T20:31:05.729Z,99783.20
2023-04-17T20:33:35.188Z,99782.63
2023-04-17T20:36:03.668Z,99784.42
2023-04-17T20:38:32.182Z,99784.86
2023-04-17T20:41:00.686Z,99783.51
2023-04-17T20:43:28.559Z,99783.55
2023-04-17T20:45:56.637Z,99778.73
2023-04-17T20:48:25.519Z,99779.14
2023-04-17T20:50:55.117Z,99778.46
2023-04-17T20:53:23.028Z,99780.45
2023-04-17T20:55:51.042Z,99783.47
2023-04-17T20:58:19.493Z,99785.56
2023-04-17T21:01:00.827Z,99784.88
2023-04-17T21:03:31.199Z,99788.10
2023-04-17T21:05:59.990Z,99785.59
2023-04-17T21:08:28.012Z,99786.70
2023-04-17T21:10:56.011Z,99782.58
2023-04-17T21:13:24.086Z,99783.49
2023-04-17T21:15:54.649Z,99779.48
2023-04-17T21:18:22.723Z,99777.65
2023-04-17T21:20:51.005Z,99776.95
2023-04-17T21:23:18.994Z,99775.79
2023-04-17T21:25:50.760Z,99776.69
2023-04-17T21:28:18.801Z,99780.79
2023-04-17T21:30:48.242Z,99782.86
2023-04-17T21:33:16.741Z,99781.55
2023-04-17T21:35:48.914Z,99782.18
2023-04-17T21:38:16.988Z,99782.77
2023-04-17T21:43:15.888Z,99781.50
2023-04-17T21:45:43.820Z,99781.05
2023-04-17T21:48:11.744Z,99784.02
2023-04-17T21:50:41.376Z,99786.58
2023-04-17T21:53:09.565Z,99789.76
2023-04-17T21:55:38.223Z,99786.70
2023-04-17T21:58:06.118Z,99788.66
2023-04-17T22:00:34.109Z,99790.34
2023-04-17T22:03:02.077Z,99791.73
2023-04-17T22:05:30.080Z,99792.50
2023-04-17T22:07:57.928Z,99794.98
2023-04-17T22:10:28.726Z,99798.45
2023-04-17T22:12:59.291Z,99799.58
2023-04-17T22:15:27.199Z,99799.13
2023-04-17T22:17:55.212Z,99801.61
2023-04-17T22:20:23.363Z,99800.65
2023-04-17T22:22:51.193Z,99797.83
2023-04-17T22:25:20.861Z,99797.33
2023-04-17T22:27:48.953Z,99796.52
2023-04-17T22:30:17.104Z,99797.63
2023-04-17T22:32:45.135Z,99797.56
2023-04-17T22:35:14.104Z,99798.38
2023-04-17T22:37:42.301Z,99798.15
2023-04-17T22:40:10.821Z,99802.38
2023-04-17T22:42:38.739Z,99800.85
2023-04-17T22:45:07.220Z,99800.45
2023-04-17T22:47:35.192Z,99800.91
2023-04-17T22:50:03.572Z,99804.05
2023-04-17T22:52:31.540Z,99805.15
2023-04-17T22:54:59.681Z,99802.98
2023-04-17T22:57:27.599Z,99803.12
2023-04-17T22:59:55.652Z,99802.10
2023-04-17T23:02:25.027Z,99801.71
2023-04-17T23:04:53.200Z,99800.92
2023-04-17T23:07:21.181Z,99804.09
2023-04-17T23:09:49.142Z,99803.71
2023-04-17T23:12:16.971Z,99803.23
2023-04-17T23:14:46.124Z,99805.71
2023-04-17T23:17:14.308Z,99806.54
2023-04-17T23:19:42.295Z,99804.13
2023-04-17T23:22:10.377Z,99802.39
2023-04-17T23:24:38.183Z,99798.58
2023-04-17T23:27:06.082Z,99794.45
2023-04-17T23:29:33.952Z,99793.21
2023-04-17T23:32:01.862Z,99793.09
2023-04-17T23:34:29.863Z,99793.50
2023-04-17T23:36:57.655Z,99793.13
2023-04-17T23:39:25.765Z,99793.36
2023-04-17T23:41:53.559Z,99796.20
2023-04-17T23:44:21.557Z,99795.52
2023-04-17T23:46:49.588Z,99795.63
2023-04-17T23:49:17.733Z,99799.77
2023-04-17T23:51:45.915Z,99803.84
2023-04-17T23:54:13.810Z,99804.61
2023-04-17T23:56:43.720Z,99803.98
2023-04-17T23:59:11.680Z,99802.84
